createdAt,value
2018-03-08T00:02:07.660Z,89.90
2018-03-08T00:04:36.918Z,90.40
2018-03-08T00:07:06.468Z,91.00
2018-03-08T00:09:35.704Z,89.90
2018-03-08T00:12:04.973Z,91.10
2018-03-08T00:14:34.237Z,91.20
2018-03-08T00:17:03.497Z,89.50
2018-03-08T00:19:32.803Z,89.80
2018-03-08T00:22:02.052Z,88.90
2018-03-08T00:24:32.880Z,89.30
2018-03-08T00:27:02.202Z,87.90
2018-03-08T00:29:32.344Z,86.50
2018-03-08T00:32:08.786Z,85.20
2018-03-08T00:34:38.992Z,85.10
2018-03-08T00:37:09.584Z,84.40
2018-03-08T00:39:40.087Z,84.10
2018-03-08T00:42:09.335Z,82.20
2018-03-08T00:44:38.743Z,81.20
2018-03-08T00:47:08.267Z,80.20
2018-03-08T00:49:43.726Z,80.30
2018-03-08T00:52:14.080Z,79.80
2018-03-08T00:54:43.300Z,80.10
2018-03-08T00:57:12.579Z,78.60
2018-03-08T00:59:42.609Z,79.00
2018-03-08T01:02:11.977Z,78.50
2018-03-08T01:05:08.776Z,79.10
2018-03-08T01:08:08.595Z,78.40
2018-03-08T01:10:38.519Z,78.90
2018-03-08T01:13:08.026Z,78.10
2018-03-08T01:15:37.350Z,79.60
2018-03-08T01:18:06.752Z,78.80
2018-03-08T01:20:36.028Z,79.50
2018-03-08T01:23:05.283Z,78.20
2018-03-08T01:25:35.338Z,77.10
2018-03-08T01:28:12.403Z,77.10
2018-03-08T01:30:41.704Z,77.30
2018-03-08T01:33:38.496Z,76.70
2018-03-08T01:36:25.413Z,77.70
2018-03-08T01:39:00.000Z,77.10
2018-03-08T01:41:30.224Z,77.90
2018-03-08T01:43:59.512Z,77.40
2018-03-08T01:46:28.813Z,77.60
2018-03-08T01:49:02.617Z,78.50
2018-03-08T01:51:32.296Z,78.40
2018-03-08T01:54:03.371Z,78.70
2018-03-08T01:56:33.251Z,78.20
2018-03-08T01:59:02.515Z,77.50
2018-03-08T02:01:31.764Z,77.70
2018-03-08T02:04:01.085Z,78.30
2018-03-08T02:06:30.379Z,78.50
2018-03-08T02:08:59.648Z,78.40
2018-03-08T02:11:28.929Z,78.50
2018-03-08T02:14:10.575Z,78.60
2018-03-08T02:16:39.875Z,78.60
2018-03-08T02:19:09.275Z,78.30
2018-03-08T02:21:39.851Z,78.10
2018-03-08T02:24:09.276Z,78.30
2018-03-08T02:26:48.002Z,78.00
2018-03-08T02:29:19.347Z,77.90
2018-03-08T02:31:48.619Z,77.70
2018-03-08T02:34:17.876Z,78.20
2018-03-08T02:36:47.212Z,78.60
2018-03-08T02:39:24.572Z,79.00
2018-03-08T02:41:54.186Z,78.90
2018-03-08T02:44:23.471Z,79.00
2018-03-08T02:46:52.868Z,79.50
2018-03-08T02:49:38.685Z,78.80
2018-03-08T02:52:08.003Z,79.30
2018-03-08T02:54:37.262Z,79.50
2018-03-08T02:57:06.553Z,79.70
2018-03-08T02:59:36.478Z,79.40
2018-03-08T03:02:05.774Z,79.50
2018-03-08T03:04:35.055Z,79.50
2018-03-08T03:07:04.734Z,80.00
2018-03-08T03:09:34.006Z,79.60
2018-03-08T03:12:04.840Z,79.90
2018-03-08T03:14:34.098Z,79.70
2018-03-08T03:17:03.374Z,80.00
2018-03-08T03:19:32.637Z,79.90
2018-03-08T03:24:49.672Z,79.10
2018-03-08T03:27:18.975Z,79.70
2018-03-08T03:29:48.270Z,79.30
2018-03-08T03:32:18.919Z,79.30
2018-03-08T03:34:49.095Z,79.60
2018-03-08T03:37:20.106Z,79.60
2018-03-08T03:39:49.618Z,79.10
2018-03-08T03:42:18.883Z,79.60
2018-03-08T03:44:49.118Z,79.60
2018-03-08T03:47:18.412Z,79.20
2018-03-08T03:49:47.680Z,78.80
2018-03-08T03:52:17.323Z,79.10
2018-03-08T03:54:46.606Z,79.60
2018-03-08T03:57:16.639Z,78.70
2018-03-08T03:59:45.934Z,78.70
2018-03-08T04:02:15.188Z,78.60
2018-03-08T04:04:44.531Z,79.20
2018-03-08T04:07:13.765Z,79.20
2018-03-08T04:09:44.182Z,79.40
2018-03-08T04:12:13.472Z,79.60
2018-03-08T04:14:42.680Z,79.00
2018-03-08T04:17:12.344Z,79.10
2018-03-08T04:19:41.590Z,79.10
2018-03-08T04:22:10.905Z,79.30
2018-03-08T04:24:40.482Z,79.70
2018-03-08T04:27:11.014Z,81.00
2018-03-08T04:29:40.341Z,80.30
2018-03-08T04:32:10.558Z,80.70
2018-03-08T04:34:39.868Z,80.50
2018-03-08T04:37:13.889Z,80.70
2018-03-08T04:39:43.339Z,80.30
2018-03-08T04:42:12.643Z,80.40
2018-03-08T04:44:42.678Z,80.80
2018-03-08T04:47:11.962Z,80.70
2018-03-08T04:49:42.003Z,80.10
2018-03-08T04:52:13.954Z,80.10
2018-03-08T04:54:55.797Z,80.00
2018-03-08T04:57:25.072Z,80.30
2018-03-08T04:59:54.367Z,80.50
2018-03-08T05:02:26.482Z,80.90
2018-03-08T05:04:57.576Z,81.50
2018-03-08T05:07:26.882Z,80.70
2018-03-08T05:09:56.163Z,80.80
2018-03-08T05:12:25.459Z,80.70
2018-03-08T05:14:56.559Z,80.60
2018-03-08T05:17:30.725Z,80.60
2018-03-08T05:20:00.110Z,80.90
2018-03-08T05:22:29.892Z,81.20
2018-03-08T05:24:59.167Z,80.20
2018-03-08T05:27:39.169Z,80.20
2018-03-08T05:30:08.662Z,80.50
2018-03-08T05:32:38.006Z,81.50
2018-03-08T05:35:10.180Z,83.40
2018-03-08T05:37:39.805Z,82.80
2018-03-08T05:40:09.819Z,82.90
2018-03-08T05:42:41.781Z,82.30
2018-03-08T05:45:11.038Z,82.30
2018-03-08T05:47:40.356Z,81.80
2018-03-08T05:50:09.654Z,81.60
2018-03-08T05:52:40.626Z,81.40
2018-03-08T05:58:14.666Z,80.90
2018-03-08T06:00:43.944Z,81.70
2018-03-08T06:03:13.204Z,81.20
2018-03-08T06:05:44.469Z,81.70
2018-03-08T06:08:13.743Z,81.20
2018-03-08T06:10:43.022Z,81.20
2018-03-08T06:13:12.322Z,81.00
2018-03-08T06:15:41.583Z,80.70
2018-03-08T06:18:11.910Z,80.10
2018-03-08T06:20:42.009Z,79.70
2018-03-08T06:23:11.590Z,79.80
2018-03-08T06:25:40.856Z,79.90
2018-03-08T06:28:10.128Z,80.20
2018-03-08T06:30:39.438Z,79.40
2018-03-08T06:33:08.720Z,78.70
2018-03-08T06:35:38.200Z,79.30
2018-03-08T06:38:07.603Z,78.90
2018-03-08T06:40:36.851Z,79.00
2018-03-08T06:43:07.426Z,78.70
2018-03-08T06:45:37.529Z,78.80
2018-03-08T06:48:07.585Z,78.00
2018-03-08T06:50:36.930Z,78.00
2018-03-08T06:53:06.187Z,77.40
2018-03-08T06:55:35.487Z,77.20
2018-03-08T06:58:04.794Z,75.80
2018-03-08T07:00:34.147Z,76.10
2018-03-08T07:03:03.385Z,76.70
2018-03-08T07:05:32.660Z,75.90
2018-03-08T07:08:01.996Z,76.00
2018-03-08T07:10:31.267Z,75.20
2018-03-08T07:13:09.232Z,75.90
2018-03-08T07:15:38.497Z,76.00
2018-03-08T07:18:07.771Z,75.10
2018-03-08T07:20:37.056Z,75.30
2018-03-08T07:23:06.295Z,74.40
2018-03-08T07:25:35.578Z,74.30
2018-03-08T07:28:04.838Z,74.00
2018-03-08T07:30:35.173Z,74.80
2018-03-08T07:33:04.445Z,74.80
2018-03-08T07:35:33.720Z,74.70
2018-03-08T07:38:03.776Z,74.40
2018-03-08T07:40:33.043Z,74.40
2018-03-08T07:43:03.095Z,74.20
2018-03-08T07:45:32.398Z,73.50
2018-03-08T07:48:02.444Z,73.30
2018-03-08T07:50:31.773Z,73.30
2018-03-08T07:53:01.046Z,72.60
2018-03-08T07:55:30.665Z,72.80
2018-03-08T07:57:59.902Z,71.80
2018-03-08T08:00:29.213Z,71.70
2018-03-08T08:02:58.518Z,71.30
2018-03-08T08:08:53.153Z,71.80
2018-03-08T08:11:23.226Z,71.60
2018-03-08T08:13:52.553Z,71.60
2018-03-08T08:16:22.143Z,71.40
2018-03-08T08:18:51.439Z,71.30
2018-03-08T08:21:20.688Z,72.00
2018-03-08T08:23:49.971Z,71.80
2018-03-08T08:26:19.254Z,71.10
2018-03-08T08:28:49.585Z,70.40
2018-03-08T08:31:19.615Z,71.70
2018-03-08T08:33:49.943Z,70.90
2018-03-08T08:36:19.226Z,70.50
2018-03-08T08:38:48.501Z,70.50
2018-03-08T08:41:17.768Z,69.60
2018-03-08T08:43:47.203Z,69.50
2018-03-08T08:46:16.440Z,68.80
2018-03-08T08:48:46.087Z,69.40
2018-03-08T08:51:15.527Z,69.70
2018-03-08T08:53:44.779Z,70.70
2018-03-08T08:56:14.069Z,70.00
2018-03-08T08:58:43.349Z,69.80
2018-03-08T09:01:12.627Z,69.40
2018-03-08T09:03:41.901Z,69.70
2018-03-08T09:06:11.221Z,69.60
2018-03-08T09:08:40.494Z,68.40
2018-03-08T09:11:09.830Z,68.50
2018-03-08T09:13:40.029Z,66.00
2018-03-08T09:16:09.323Z,65.40
2018-03-08T09:18:38.642Z,65.40
2018-03-08T09:21:08.018Z,65.90
2018-03-08T09:23:37.310Z,65.20
2018-03-08T09:26:06.564Z,65.10
2018-03-08T09:28:36.605Z,64.70
2018-03-08T09:31:05.866Z,64.70
2018-03-08T09:33:35.171Z,65.50
2018-03-08T09:36:04.446Z,65.40
2018-03-08T09:38:34.668Z,64.80
2018-03-08T09:41:03.939Z,64.20
2018-03-08T09:43:33.220Z,62.40
2018-03-08T09:46:02.483Z,61.10
2018-03-08T09:48:31.860Z,60.70
2018-03-08T09:51:01.156Z,61.90
2018-03-08T09:53:30.406Z,60.40
2018-03-08T09:55:59.700Z,60.50
2018-03-08T09:58:28.955Z,60.40
2018-03-08T10:00:58.226Z,61.10
2018-03-08T10:03:27.485Z,61.00
2018-03-08T10:05:57.014Z,61.70
2018-03-08T10:08:27.022Z,61.10
2018-03-08T10:10:57.065Z,61.00
2018-03-08T10:13:26.352Z,61.10
2018-03-08T10:15:55.624Z,61.80
2018-03-08T10:18:24.959Z,61.00
2018-03-08T10:20:54.252Z,62.50
2018-03-08T10:23:23.562Z,62.70
2018-03-08T10:25:52.862Z,63.30
2018-03-08T10:28:22.111Z,63.80
2018-03-08T10:30:51.668Z,63.40
2018-03-08T10:33:20.921Z,62.90
2018-03-08T10:35:50.159Z,63.40
2018-03-08T10:38:19.463Z,64.20
2018-03-08T10:40:48.717Z,64.10
2018-03-08T10:43:18.221Z,64.40
2018-03-08T10:45:47.503Z,64.10
2018-03-08T10:48:16.765Z,64.60
2018-03-08T10:50:46.128Z,64.30
2018-03-08T10:53:15.391Z,64.20
2018-03-08T10:55:44.683Z,63.90
2018-03-08T10:58:13.944Z,63.90
2018-03-08T11:00:47.038Z,64.00
2018-03-08T11:03:16.282Z,64.20
2018-03-08T11:05:47.346Z,64.10
2018-03-08T11:08:30.758Z,63.10
2018-03-08T11:11:00.433Z,63.10
2018-03-08T11:13:29.698Z,63.90
2018-03-08T11:15:59.014Z,64.40
2018-03-08T11:18:28.329Z,65.00
2018-03-08T11:20:57.658Z,63.30
2018-03-08T11:23:26.940Z,62.70
2018-03-08T11:25:56.206Z,62.00
2018-03-08T11:28:25.507Z,60.90
2018-03-08T11:30:55.524Z,60.70
2018-03-08T11:33:25.959Z,59.00
2018-03-08T11:38:30.271Z,58.80
2018-03-08T11:40:59.520Z,58.10
2018-03-08T11:43:28.759Z,57.40
2018-03-08T11:45:58.036Z,57.60
2018-03-08T11:48:27.818Z,57.50
2018-03-08T11:50:57.831Z,57.80
2018-03-08T11:53:26.397Z,57.20
2018-03-08T11:55:55.690Z,56.90
2018-03-08T11:58:24.944Z,55.60
2018-03-08T12:00:54.252Z,55.80
2018-03-08T12:03:23.534Z,54.50
2018-03-08T12:05:53.064Z,55.10
2018-03-08T12:08:22.331Z,55.00
2018-03-08T12:10:51.602Z,54.90
2018-03-08T12:13:20.906Z,55.20
2018-03-08T12:15:50.180Z,55.70
2018-03-08T12:18:19.497Z,55.60
2018-03-08T12:20:49.069Z,55.20
2018-03-08T12:23:18.431Z,54.70
2018-03-08T12:26:14.276Z,53.80
2018-03-08T12:28:45.027Z,53.10
2018-03-08T12:31:15.108Z,52.70
2018-03-08T12:33:45.891Z,52.00
2018-03-08T12:38:49.887Z,50.90
2018-03-08T12:41:19.166Z,50.30
2018-03-08T12:43:48.438Z,49.70
2018-03-08T12:46:17.727Z,47.90
2018-03-08T12:48:46.992Z,48.20
2018-03-08T12:51:16.247Z,48.80
2018-03-08T12:53:45.520Z,49.60
2018-03-08T12:56:14.815Z,48.60
2018-03-08T12:58:44.182Z,48.40
2018-03-08T13:01:13.468Z,49.10
2018-03-08T13:03:42.743Z,49.20
2018-03-08T13:06:14.447Z,49.40
2018-03-08T13:08:43.694Z,49.50
2018-03-08T13:13:55.808Z,48.30
2018-03-08T13:19:42.441Z,47.50
2018-03-08T13:22:11.715Z,47.00
2018-03-08T13:24:41.007Z,45.60
2018-03-08T13:27:10.270Z,45.00
2018-03-08T13:29:40.325Z,44.90
2018-03-08T13:32:09.606Z,44.60
2018-03-08T13:34:38.910Z,44.50
2018-03-08T13:37:08.179Z,45.40
2018-03-08T13:39:38.216Z,43.70
2018-03-08T13:42:12.187Z,43.70
2018-03-08T13:44:45.334Z,44.20
2018-03-08T13:47:15.516Z,44.40
2018-03-08T13:49:44.763Z,44.40
2018-03-08T13:52:14.900Z,43.30
2018-03-08T13:54:44.932Z,43.30
2018-03-08T13:57:17.211Z,43.20
2018-03-08T13:59:46.831Z,43.10
2018-03-08T14:02:17.417Z,43.30
2018-03-08T14:04:46.644Z,43.20
2018-03-08T14:07:15.923Z,43.30
2018-03-08T14:09:45.223Z,43.20
2018-03-08T14:12:14.552Z,43.20
2018-03-08T14:14:44.562Z,43.50
2018-03-08T14:17:13.864Z,43.40
2018-03-08T14:19:43.336Z,42.90
2018-03-08T14:22:12.835Z,42.70
2018-03-08T14:24:42.245Z,43.20
2018-03-08T14:27:11.623Z,43.20
2018-03-08T14:29:41.646Z,43.40
2018-03-08T14:32:10.983Z,42.60
2018-03-08T14:34:40.296Z,43.20
2018-03-08T14:39:44.040Z,42.80
2018-03-08T14:42:13.340Z,42.70
2018-03-08T14:44:42.618Z,42.70
2018-03-08T14:47:12.070Z,42.80
2018-03-08T14:49:41.461Z,43.10
2018-03-08T14:52:10.783Z,43.20
2018-03-08T14:54:42.182Z,43.30
2018-03-08T14:57:17.974Z,42.40
2018-03-08T14:59:47.301Z,43.10
2018-03-08T15:04:56.110Z,42.90
2018-03-08T15:07:25.480Z,42.50
2018-03-08T15:09:54.758Z,42.50
2018-03-08T15:12:24.047Z,41.80
2018-03-08T15:14:53.316Z,42.00
2018-03-08T15:17:36.759Z,42.20
2018-03-08T15:20:06.839Z,42.20
2018-03-08T15:22:36.112Z,42.20
2018-03-08T15:25:06.522Z,42.30
2018-03-08T15:27:35.790Z,42.80
2018-03-08T15:30:05.827Z,44.20
2018-03-08T15:32:35.135Z,43.50
2018-03-08T15:35:05.379Z,43.80
2018-03-08T15:37:34.642Z,43.90
2018-03-08T15:40:09.925Z,43.80
2018-03-08T15:42:39.219Z,43.80
2018-03-08T15:45:08.502Z,44.30
2018-03-08T15:47:40.600Z,44.60
2018-03-08T15:50:09.916Z,44.80
2018-03-08T15:52:39.254Z,44.90
2018-03-08T15:55:10.586Z,45.10
2018-03-08T15:57:40.752Z,45.30
2018-03-08T16:00:10.042Z,44.40
2018-03-08T16:05:33.063Z,45.00
2018-03-08T16:11:47.772Z,45.00
2018-03-08T16:14:17.112Z,45.00
2018-03-08T16:16:46.354Z,44.70
2018-03-08T16:19:15.643Z,44.40
2018-03-08T16:21:44.918Z,44.20
2018-03-08T16:24:14.982Z,44.40
2018-03-08T16:26:44.610Z,44.40
2018-03-08T16:29:13.946Z,44.20
2018-03-08T16:31:43.244Z,44.00
2018-03-08T16:34:13.446Z,43.60
2018-03-08T16:36:43.039Z,43.70
2018-03-08T16:39:12.859Z,43.60
2018-03-08T16:41:42.156Z,44.10
2018-03-08T16:44:11.412Z,43.30
2018-03-08T16:46:40.718Z,43.20
2018-03-08T16:49:12.042Z,43.30
2018-03-08T16:51:41.368Z,42.60
2018-03-08T16:54:10.647Z,42.60
2018-03-08T16:56:39.966Z,42.40
2018-03-08T16:59:11.264Z,42.30
2018-03-08T17:01:40.791Z,42.40
2018-03-08T17:04:10.067Z,42.40
2018-03-08T17:06:39.370Z,42.30
2018-03-08T17:09:08.744Z,42.20
2018-03-08T17:11:38.034Z,42.10
2018-03-08T17:14:08.759Z,42.10
2018-03-08T17:16:38.053Z,42.40
2018-03-08T17:19:07.449Z,42.20
2018-03-08T17:21:36.734Z,41.90
2018-03-08T17:24:06.007Z,41.60
2018-03-08T17:26:35.306Z,41.50
2018-03-08T17:29:04.555Z,41.40
2018-03-08T17:31:34.174Z,41.20
2018-03-08T17:34:04.236Z,41.10
2018-03-08T17:36:33.529Z,41.10
2018-03-08T17:39:02.817Z,40.60
2018-03-08T17:41:32.074Z,40.80
2018-03-08T17:44:01.466Z,41.00
2018-03-08T17:46:31.489Z,40.60
2018-03-08T17:49:01.604Z,40.60
2018-03-08T17:51:30.830Z,40.60
2018-03-08T17:54:00.887Z,41.20
2018-03-08T17:56:30.159Z,41.10
2018-03-08T18:01:49.428Z,41.50
2018-03-08T18:04:18.679Z,41.50
2018-03-08T18:06:47.987Z,43.60
2018-03-08T18:09:17.292Z,45.50
2018-03-08T18:11:46.881Z,47.60
2018-03-08T18:14:16.874Z,53.40
2018-03-08T18:16:46.155Z,53.40
2018-03-08T18:19:15.428Z,58.80
2018-03-08T18:21:44.772Z,63.00
2018-03-08T18:24:14.050Z,69.40
2018-03-08T18:26:43.474Z,73.80
2018-03-08T18:29:12.843Z,76.30
2018-03-08T18:31:42.227Z,78.90
2018-03-08T18:34:13.840Z,81.80
2018-03-08T18:36:43.187Z,81.60
2018-03-08T18:39:12.475Z,84.90
2018-03-08T18:41:41.896Z,87.20
2018-03-08T18:44:11.171Z,82.70
2018-03-08T18:46:40.800Z,83.10
2018-03-08T18:49:10.246Z,82.70
2018-03-08T18:54:23.782Z,78.30
2018-03-08T18:56:55.453Z,78.40
2018-03-08T18:59:24.964Z,78.90
2018-03-08T19:01:55.376Z,76.10
2018-03-08T19:04:24.648Z,76.30
2018-03-08T19:07:06.430Z,72.20
2018-03-08T19:09:36.498Z,74.30
2018-03-08T19:12:08.911Z,74.30
2018-03-08T19:14:39.700Z,74.80
2018-03-08T19:17:09.052Z,76.70
2018-03-08T19:19:39.620Z,76.10
2018-03-08T19:22:09.083Z,76.20
2018-03-08T19:24:43.099Z,73.80
2018-03-08T19:27:12.346Z,73.80
2018-03-08T19:29:41.728Z,74.30
2018-03-08T19:32:11.825Z,73.90
2018-03-08T19:34:41.233Z,73.80
2018-03-08T19:37:10.579Z,74.00
2018-03-08T19:39:39.994Z,71.90
2018-03-08T19:42:10.210Z,71.70
2018-03-08T19:44:39.533Z,73.10
2018-03-08T19:47:10.124Z,74.10
2018-03-08T19:49:40.554Z,76.00
2018-03-08T19:52:10.847Z,76.60
2018-03-08T19:54:40.319Z,77.00
2018-03-08T19:57:10.351Z,76.70
2018-03-08T19:59:40.708Z,76.40
2018-03-08T20:02:12.038Z,77.30
2018-03-08T20:04:41.480Z,76.80
2018-03-08T20:07:11.453Z,76.40
2018-03-08T20:09:42.250Z,76.30
2018-03-08T20:12:12.487Z,75.90
2018-03-08T20:14:42.811Z,76.80
2018-03-08T20:17:12.497Z,76.50
2018-03-08T20:19:41.953Z,77.30
2018-03-08T20:22:11.278Z,78.50
2018-03-08T20:24:40.566Z,78.40
2018-03-08T20:27:10.305Z,78.40
2018-03-08T20:29:39.580Z,78.50
2018-03-08T20:32:08.915Z,76.90
2018-03-08T20:34:38.324Z,76.90
2018-03-08T20:37:07.632Z,76.30
2018-03-08T20:39:37.652Z,77.80
2018-03-08T20:42:07.270Z,78.00
2018-03-08T20:44:36.531Z,77.00
2018-03-08T20:47:05.820Z,76.50
2018-03-08T20:49:35.337Z,76.30
2018-03-08T20:52:05.952Z,74.70
2018-03-08T20:54:45.878Z,74.70
2018-03-08T20:57:15.308Z,74.40
2018-03-08T20:59:52.566Z,74.00
2018-03-08T21:02:23.185Z,74.10
2018-03-08T21:04:55.395Z,73.70
2018-03-08T21:07:24.698Z,73.10
2018-03-08T21:09:54.264Z,73.50
2018-03-08T21:12:23.533Z,73.40
2018-03-08T21:14:54.043Z,73.70
2018-03-08T21:17:24.800Z,73.80
2018-03-08T21:19:54.318Z,73.50
2018-03-08T21:22:23.614Z,73.80
2018-03-08T21:24:52.914Z,73.60
2018-03-08T21:27:22.205Z,73.30
2018-03-08T21:29:51.532Z,73.70
2018-03-08T21:32:20.833Z,73.70
2018-03-08T21:34:50.083Z,73.50
2018-03-08T21:37:20.147Z,74.00
2018-03-08T21:39:49.411Z,73.90
2018-03-08T21:42:26.504Z,74.10
2018-03-08T21:44:56.532Z,74.10
2018-03-08T21:47:25.805Z,74.10
2018-03-08T21:49:55.083Z,74.80
2018-03-08T21:52:24.688Z,74.20
2018-03-08T21:54:54.696Z,74.40
2018-03-08T21:57:24.048Z,74.30
2018-03-08T21:59:53.368Z,75.10
2018-03-08T22:02:28.167Z,74.80
2018-03-08T22:04:58.218Z,75.30
2018-03-08T22:07:27.471Z,75.30
2018-03-08T22:09:56.743Z,75.80
2018-03-08T22:12:26.008Z,76.00
2018-03-08T22:14:55.264Z,75.90
2018-03-08T22:17:24.561Z,76.10
2018-03-08T22:19:53.822Z,76.20
2018-03-08T22:22:24.095Z,76.70
2018-03-08T22:24:53.357Z,76.80
2018-03-08T22:27:22.633Z,76.60
2018-03-08T22:29:52.651Z,78.10
2018-03-08T22:32:23.015Z,78.10
2018-03-08T22:34:53.069Z,78.00
2018-03-08T22:37:22.357Z,78.00
2018-03-08T22:39:51.652Z,77.60
2018-03-08T22:42:21.694Z,78.30
2018-03-08T22:44:51.029Z,78.30
2018-03-08T22:47:20.315Z,78.50
2018-03-08T22:49:49.591Z,78.50
2018-03-08T22:52:19.159Z,79.30
2018-03-08T22:54:48.414Z,79.80
2018-03-08T22:57:17.689Z,79.60
2018-03-08T22:59:46.960Z,80.10
2018-03-08T23:02:16.247Z,79.50
2018-03-08T23:04:45.508Z,79.70
2018-03-08T23:07:16.808Z,79.90
2018-03-08T23:09:46.043Z,79.30
2018-03-08T23:12:15.426Z,78.80
2018-03-08T23:14:44.729Z,78.30
2018-03-08T23:17:14.015Z,79.20
2018-03-08T23:19:43.343Z,79.30
2018-03-08T23:22:12.592Z,79.10
2018-03-08T23:24:42.279Z,79.40
2018-03-08T23:27:11.531Z,79.40
2018-03-08T23:29:40.864Z,79.90
2018-03-08T23:32:10.303Z,79.60
2018-03-08T23:34:39.576Z,79.30
2018-03-08T23:37:08.873Z,79.60
2018-03-08T23:39:38.583Z,79.80
2018-03-08T23:42:13.281Z,80.30
2018-03-08T23:44:43.312Z,80.40
2018-03-08T23:47:12.693Z,80.30
2018-03-08T23:49:42.751Z,80.90
2018-03-08T23:52:12.357Z,81.10
2018-03-08T23:54:41.641Z,80.30
2018-03-08T23:57:10.934Z,81.40
2018-03-08T23:59:40.207Z,81.20
